Meteo Giornale » Osservazioni meteo Stati Uniti (USA) » Toms River

ore: 00:56 - Osservazioni Meteo Toms River
Lat. 39° 56' N Lon. 74° 18' W Alt. 25 metri s.l.m.

nuvoloso

21 °C

Nuvoloso

Temp. 24 Ore

19 °C

26 °C

Nord

0 Km/h

Dew point 0 °C

Umidità 24 %

Visibilità  10 Km

Il sole sorge alle ore 06:25

Il sole tramonta alle ore 19:28

Data e Ora Cielo e Fenomeni T °C DP °C Um. % Pres. hPa Vis. km Vento km/h
Oggi h: 00:56 nuvoloso Nuvoloso 21 0 24 1018 10 N 0
Ieri h: 23:56 sereno Sereno 21 0 24 1018 10 N 0
Ieri h: 22:56 sereno Sereno 21 0 24 1018 10 N 0
Ieri h: 21:56 sereno Sereno 21 0 24 1019 10 N 0
Ieri h: 20:56 molto_nuvoloso Molto Nuvoloso 22 22 100 1019 10 N 0
Ieri h: 19:56 molto_nuvoloso Molto Nuvoloso 22 22 100 1018 10 N 0
Ieri h: 18:56 molto_nuvoloso Molto Nuvoloso 23 22 94 1019 10 S/SE 7.4
Ieri h: 17:56 molto_nuvoloso Molto Nuvoloso 24 21 83 1019 10 S/SE 7.4
Ieri h: 16:56 sereno Sereno 24 20 78 1019 10 E/SE 9.3
Ieri h: 15:56 molto_nuvoloso Molto Nuvoloso 25 20 73 1019 10 E/SE 9.3
Ieri h: 14:56 molto_nuvoloso Molto Nuvoloso 26 19 65 1020 10 N 5.5
Ieri h: 14:42 coperto Coperto 24 20 78 1020 10 NE 9.3
Ieri h: 13:56 coperto Coperto 25 19 69 1020 10 NE 7.4
Ieri h: 13:20 molto_nuvoloso Molto Nuvoloso 26 19 65 1020 10 N 5.5
Ieri h: 13:09 molto_nuvoloso Molto Nuvoloso 24 19 73 1020 10 N 7.4
Ieri h: 12:56 coperto Coperto 24 19 73 1020 10 E/NE 9.3
Ieri h: 11:56 coperto Coperto 24 19 73 1020 10 E/NE 11.1
Ieri h: 11:19 molto_nuvoloso Molto Nuvoloso 24 21 83 1020 10 NE 9.3
Ieri h: 11:10 molto_nuvoloso Molto Nuvoloso 23 21 88 1020 10 NE 11.1
Ieri h: 10:56 nuvoloso Nuvoloso 23 21 88 1020 10 NE 13
Ieri h: 09:56 sereno Sereno 23 22 94 1020 10 N 5.5
Ieri h: 08:56 sereno Sereno 22 22 100 1020 10 N 5.5
Ieri h: 07:56 sereno Sereno 21 21 100 1020 10 N/NE 7.4
Ieri h: 06:56 poco_nuvoloso Poco Nuvoloso 20 0 26 1020 13 N 9.3
Ieri h: 05:56 foschia Foschia 19 0 27 1019 8 N 0
Ieri h: 04:56 sereno Sereno 21 0 24 1019 10 N 5.5
Ieri h: 03:56 sereno Sereno 21 0 24 1019 10 N 0
Ieri h: 02:56 foschia Foschia 21 0 24 1019 10 N 0
Ieri h: 01:56 nuvoloso Nuvoloso 21 0 24 1019 10 N 0